Time;durP1;ratioP1;P1;durP2;ratioP2;P2;SDS_P1;SDS_P2;PMS_P1;PMS_P2;Temp;Humidity;BMP_temperature;BMP_pressure;BME280_temperature;BME280_humidity;BME280_pressure;Samples;Min_cycle;Max_cycle;Signal;HPM_P1;HPM_P2
2022/02/13 00:01:56;;;;;;;2.00;2.00;;;;;;;-0.06;60.58;101804.39;103596;1276;95201;-67
2022/02/13 00:04:24;;;;;;;1.80;1.80;;;;;;;-0.05;60.63;101802.34;103603;1276;109864;-66
2022/02/13 00:06:54;;;;;;;1.90;1.90;;;;;;;-0.02;60.97;101802.98;103521;1276;138650;-66
2022/02/13 00:09:22;;;;;;;2.20;2.10;;;;;;;-0.08;60.59;101797.17;103611;1276;107943;-66
2022/02/13 00:11:50;;;;;;;2.00;2.00;;;;;;;-0.09;60.84;101796.06;103498;1276;138431;-65
2022/02/13 00:14:18;;;;;;;2.00;2.00;;;;;;;-0.09;60.99;101794.66;103562;1276;95285;-64
2022/02/13 00:16:46;;;;;;;1.90;1.90;;;;;;;-0.05;60.75;101789.61;103610;1276;109768;-66
2022/02/13 00:19:14;;;;;;;1.70;1.70;;;;;;;-0.06;60.67;101791.80;103520;1276;138123;-65
2022/02/13 00:21:51;;;;;;;1.90;1.90;;;;;;;-0.12;60.80;101780.77;103574;1276;109238;-66
2022/02/13 00:24:19;;;;;;;2.00;2.00;;;;;;;-0.19;61.00;101780.85;103684;1276;138221;-66
2022/02/13 00:26:47;;;;;;;2.10;2.10;;;;;;;-0.25;61.11;101779.56;103653;1276;95236;-67
2022/02/13 00:29:14;;;;;;;2.00;2.00;;;;;;;-0.23;61.29;101777.52;103689;1276;108712;-65
2022/02/13 00:31:42;;;;;;;1.90;1.90;;;;;;;-0.20;61.21;101769.98;103534;1276;138905;-66
2022/02/13 00:34:10;;;;;;;2.00;2.00;;;;;;;-0.22;61.47;101766.39;103635;1276;108797;-66
2022/02/13 00:36:39;;;;;;;2.00;2.00;;;;;;;-0.23;61.17;101764.77;103465;1276;138131;-66
2022/02/13 00:39:06;;;;;;;2.20;2.10;;;;;;;-0.27;61.40;101768.64;103572;1276;95236;-65
2022/02/13 00:41:34;;;;;;;2.00;2.00;;;;;;;-0.31;61.43;101764.12;103444;1276;138601;-66
2022/02/13 00:44:03;;;;;;;1.90;1.90;;;;;;;-0.33;61.55;101760.55;103644;1276;100047;-66
2022/02/13 00:46:31;;;;;;;1.80;1.80;;;;;;;-0.34;61.23;101756.70;103630;1276;108817;-67
2022/02/13 00:48:59;;;;;;;2.00;2.00;;;;;;;-0.34;61.43;101753.55;103357;1276;138100;-67
2022/02/13 00:51:27;;;;;;;2.00;2.00;;;;;;;-0.35;61.46;101750.36;103555;1276;97001;-66
2022/02/13 00:53:55;;;;;;;2.20;2.10;;;;;;;-0.36;61.39;101746.67;103449;1276;138478;-65
2022/02/13 00:56:23;;;;;;;2.00;2.00;;;;;;;-0.31;61.27;101738.48;103568;1276;99371;-66
2022/02/13 00:58:51;;;;;;;1.90;1.90;;;;;;;-0.30;61.54;101737.11;103542;1276;109117;-65
2022/02/13 01:01:19;;;;;;;2.00;2.00;;;;;;;-0.32;61.33;101726.55;103412;1276;138277;-63
2022/02/13 01:03:48;;;;;;;2.00;2.00;;;;;;;-0.32;61.50;101719.06;103557;1276;95680;-65
2022/02/13 01:06:16;;;;;;;2.20;2.10;;;;;;;-0.39;61.45;101715.13;103427;1276;139366;-64
2022/02/13 01:08:43;;;;;;;1.90;1.90;;;;;;;-0.41;61.52;101708.24;103568;1276;99718;-66
2022/02/13 01:11:11;;;;;;;2.00;2.00;;;;;;;-0.41;61.52;101710.87;103522;1276;108748;-65
2022/02/13 01:13:39;;;;;;;2.00;2.00;;;;;;;-0.41;61.40;101700.36;103441;1275;138672;-67
2022/02/13 01:16:07;;;;;;;2.10;2.00;;;;;;;-0.45;61.56;101699.71;103579;1276;95651;-65
2022/02/13 01:18:35;;;;;;;2.30;2.20;;;;;;;-0.50;61.47;101691.34;103417;1276;138377;-67
2022/02/13 01:21:03;;;;;;;2.50;2.40;;;;;;;-0.54;61.45;101688.55;103544;1276;99450;-66
2022/02/13 01:23:31;;;;;;;1.90;1.90;;;;;;;-0.53;61.46;101684.39;103441;1276;139480;-65
2022/02/13 01:25:59;;;;;;;1.90;1.90;;;;;;;-0.56;61.16;101676.05;103528;1276;95335;-66
2022/02/13 01:28:27;;;;;;;2.10;2.00;;;;;;;-0.59;61.30;101675.09;103566;1276;95582;-66
2022/02/13 01:31:00;;;;;;;2.20;2.10;;;;;;;-0.59;61.46;101666.73;103494;1276;138343;-64
2022/02/13 01:33:29;;;;;;;2.40;2.30;;;;;;;-0.59;61.45;101662.35;103538;1276;98296;-65
2022/02/13 01:35:58;;;;;;;2.00;2.00;;;;;;;-0.57;61.19;101658.10;103459;1276;138948;-67
2022/02/13 01:38:26;;;;;;;2.00;2.00;;;;;;;-0.54;61.35;101652.94;103619;1276;97043;-66
2022/02/13 01:40:54;;;;;;;2.10;2.10;;;;;;;-0.52;61.36;101650.60;103578;1276;95138;-66
2022/02/13 01:43:23;;;;;;;2.10;2.00;;;;;;;-0.52;61.20;101643.95;103617;1276;138769;-66
2022/02/13 01:45:50;;;;;;;2.40;2.30;;;;;;;-0.57;60.93;101642.05;103500;1278;99530;-64
2022/02/13 01:48:19;;;;;;;2.30;2.20;;;;;;;-0.55;61.40;101637.41;103419;1276;138782;-66
2022/02/13 01:50:49;;;;;;;2.00;2.00;;;;;;;-0.51;61.12;101633.56;103758;1276;95316;-67
2022/02/13 01:53:37;;;;;;;2.20;2.10;;;;;;;-0.53;61.24;101627.34;103460;1276;139493;-66
2022/02/13 01:56:05;;;;;;;2.20;2.10;;;;;;;-0.54;60.96;101622.43;103550;1276;108897;-67
2022/02/13 01:58:33;;;;;;;2.30;2.20;;;;;;;-0.56;61.18;101615.02;103502;1276;97627;-65
2022/02/13 02:01:01;;;;;;;2.10;2.00;;;;;;;-0.56;61.28;101615.20;103413;1278;139074;-66
2022/02/13 02:03:29;;;;;;;2.30;2.20;;;;;;;-0.49;61.28;101608.49;103541;1276;95737;-65
2022/02/13 02:05:57;;;;;;;2.00;2.00;;;;;;;-0.49;61.27;101612.48;103424;1277;138803;-65
2022/02/13 02:08:26;;;;;;;2.00;2.00;;;;;;;-0.51;61.02;101607.04;103571;1275;109716;-66
2022/02/13 02:10:56;;;;;;;2.10;2.10;;;;;;;-0.48;60.98;101600.49;103510;1277;100116;-65
2022/02/13 02:13:24;;;;;;;2.40;2.30;;;;;;;-0.49;61.20;101607.45;103473;1278;138077;-65
2022/02/13 02:15:51;;;;;;;2.30;2.20;;;;;;;-0.48;61.16;101609.75;103522;1277;95648;-66
2022/02/13 02:18:19;;;;;;;2.00;2.00;;;;;;;-0.50;60.77;101603.56;103477;1278;139377;-65
2022/02/13 02:20:48;;;;;;;1.80;1.80;;;;;;;-0.54;60.78;101597.14;103595;1278;111074;-66
2022/02/13 02:23:16;;;;;;;2.00;2.00;;;;;;;-0.56;61.05;101596.55;103538;1276;99653;-66
2022/02/13 02:25:46;;;;;;;2.10;2.00;;;;;;;-0.58;61.09;101598.21;103519;1277;137793;-66
2022/02/13 02:28:14;;;;;;;2.30;2.20;;;;;;;-0.62;61.32;101595.59;103560;1277;95004;-66
2022/02/13 02:30:42;;;;;;;2.10;2.00;;;;;;;-0.59;61.28;101592.05;103393;1278;138688;-65
2022/02/13 02:33:11;;;;;;;1.90;1.90;;;;;;;-0.59;61.08;101587.15;103528;1277;109299;-65
2022/02/13 02:35:40;;;;;;;2.00;2.00;;;;;;;-0.61;61.43;101590.23;103470;1277;138667;-66
2022/02/13 02:38:08;;;;;;;2.30;2.20;;;;;;;-0.61;61.17;101587.43;103550;1277;108624;-66
2022/02/13 02:40:35;;;;;;;2.40;2.30;;;;;;;-0.66;61.51;101586.73;103501;1277;95748;-66
2022/02/13 02:43:03;;;;;;;2.30;2.20;;;;;;;-0.68;61.57;101584.20;103393;1277;138826;-66
2022/02/13 02:45:31;;;;;;;2.20;2.10;;;;;;;-0.70;61.61;101580.80;103515;1277;109740;-66
2022/02/13 02:47:59;;;;;;;2.20;2.10;;;;;;;-0.74;61.48;101577.16;103425;1277;139308;-66
2022/02/13 02:50:27;;;;;;;2.20;2.10;;;;;;;-0.77;61.69;101575.99;103518;1276;108961;-66
2022/02/13 02:52:56;;;;;;;2.00;2.00;;;;;;;-0.82;61.79;101571.46;103537;1276;95878;-65
2022/02/13 02:55:23;;;;;;;2.20;2.10;;;;;;;-0.89;62.09;101570.52;103442;1276;138384;-66
2022/02/13 02:57:51;;;;;;;2.10;2.10;;;;;;;-0.86;62.05;101567.48;103533;1277;109701;-66
2022/02/13 03:00:19;;;;;;;2.00;2.00;;;;;;;-0.83;61.95;101566.70;103452;1277;138360;-66
2022/02/13 03:02:48;;;;;;;2.20;2.10;;;;;;;-0.81;61.93;101563.66;103534;1276;109951;-66
2022/02/13 03:05:15;;;;;;;2.30;2.20;;;;;;;-0.78;61.85;101560.11;103557;1278;96176;-65
2022/02/13 03:07:43;;;;;;;2.20;2.10;;;;;;;-0.83;61.78;101556.41;103410;1278;138564;-65
2022/02/13 03:10:11;;;;;;;2.10;2.00;;;;;;;-0.89;61.89;101557.96;103517;1276;108646;-66
2022/02/13 03:12:39;;;;;;;2.20;2.10;;;;;;;-0.91;62.04;101554.73;103445;1277;138494;-66
2022/02/13 03:15:07;;;;;;;2.20;2.10;;;;;;;-0.95;62.27;101550.19;103489;1276;108967;-65
2022/02/13 03:17:35;;;;;;;2.30;2.20;;;;;;;-0.96;62.38;101547.36;103396;1276;138329;-66
2022/02/13 03:20:04;;;;;;;2.30;2.20;;;;;;;-1.01;62.38;101544.73;103572;1277;95872;-66
2022/02/13 03:22:32;;;;;;;2.20;2.10;;;;;;;-1.05;62.54;101538.48;103468;1277;109826;-66
2022/02/13 03:25:03;;;;;;;2.00;2.00;;;;;;;-1.04;62.64;101534.36;103412;1277;139337;-66
2022/02/13 03:27:31;;;;;;;2.00;2.00;;;;;;;-1.04;62.69;101533.14;103568;1277;108837;-66
2022/02/13 03:29:59;;;;;;;2.20;2.10;;;;;;;-1.05;62.64;101533.64;103470;1277;138234;-66
2022/02/13 03:32:27;;;;;;;2.30;2.20;;;;;;;-1.10;62.60;101533.76;103598;1277;95846;-66
2022/02/13 03:34:54;;;;;;;2.30;2.20;;;;;;;-1.15;63.02;101532.70;103565;1277;109940;-65
2022/02/13 03:37:23;;;;;;;2.30;2.20;;;;;;;-1.16;63.04;101533.34;103432;1277;138744;-66
2022/02/13 03:39:51;;;;;;;1.90;1.90;;;;;;;-1.11;62.96;101526.93;103458;1277;128267;-66
2022/02/13 03:42:19;;;;;;;2.20;2.10;;;;;;;-1.09;62.61;101525.63;103799;1277;138290;-66
2022/02/13 03:44:48;;;;;;;2.00;2.00;;;;;;;-1.08;62.93;101521.48;103578;1276;95160;-66
2022/02/13 03:47:16;;;;;;;2.20;2.10;;;;;;;-1.03;63.05;101514.55;103558;1277;108767;-65
2022/02/13 03:49:44;;;;;;;2.30;2.20;;;;;;;-1.00;62.50;101507.14;103412;1276;138844;-65
2022/02/13 03:52:12;;;;;;;2.20;2.10;;;;;;;-1.03;62.52;101511.20;103536;1277;109313;-65
2022/02/13 03:54:39;;;;;;;2.00;2.00;;;;;;;-1.04;62.47;101510.48;103438;1277;138122;-66
2022/02/13 03:57:07;;;;;;;2.00;2.00;;;;;;;-1.08;62.48;101511.00;103582;1275;95237;-68
2022/02/13 03:59:35;;;;;;;2.20;2.10;;;;;;;-1.14;62.71;101506.41;103423;1277;138243;-65
2022/02/13 04:02:03;;;;;;;2.20;2.10;;;;;;;-1.15;62.76;101506.38;103559;1277;98717;-66
2022/02/13 04:04:31;;;;;;;2.20;2.10;;;;;;;-1.12;62.62;101499.70;103502;1276;108688;-63
2022/02/13 04:06:59;;;;;;;2.20;2.10;;;;;;;-1.17;62.84;101498.30;103421;1277;138167;-66
2022/02/13 04:09:27;;;;;;;2.30;2.20;;;;;;;-1.19;62.72;101499.25;103525;1276;95772;-62
2022/02/13 04:11:55;;;;;;;2.50;2.40;;;;;;;-1.22;62.73;101496.86;103440;1276;138117;-65
2022/02/13 04:14:24;;;;;;;2.50;2.40;;;;;;;-1.20;62.68;101489.46;103528;1276;99468;-66
2022/02/13 04:16:52;;;;;;;2.20;2.10;;;;;;;-1.18;62.25;101484.48;103497;1277;108739;-66
2022/02/13 04:19:19;;;;;;;2.20;2.10;;;;;;;-1.15;62.33;101479.71;103439;1277;139065;-65
2022/02/13 04:21:48;;;;;;;2.30;2.20;;;;;;;-1.16;62.24;101478.11;103569;1276;95780;-64
2022/02/13 04:24:15;;;;;;;2.30;2.20;;;;;;;-1.20;62.13;101474.31;103433;1276;138002;-66
2022/02/13 04:26:44;;;;;;;2.60;2.50;;;;;;;-1.18;62.22;101471.08;103498;1276;99362;-65
2022/02/13 04:29:12;;;;;;;2.30;2.20;;;;;;;-1.13;61.88;101470.17;103546;1276;108900;-67
2022/02/13 04:31:40;;;;;;;2.20;2.10;;;;;;;-1.12;61.86;101462.42;103348;1277;138453;-66
2022/02/13 04:34:08;;;;;;;2.00;2.00;;;;;;;-1.10;61.74;101462.16;103580;1276;95154;-66
2022/02/13 04:36:36;;;;;;;2.40;2.30;;;;;;;-1.06;61.86;101456.19;103447;1276;137918;-66
2022/02/13 04:39:05;;;;;;;2.40;2.30;;;;;;;-1.07;61.78;101459.64;103530;1276;99404;-66
2022/02/13 04:41:33;;;;;;;2.30;2.20;;;;;;;-1.09;61.71;101455.71;103439;1277;138654;-65
2022/02/13 04:44:00;;;;;;;2.20;2.10;;;;;;;-1.07;61.85;101456.85;103579;1276;95332;-65
2022/02/13 04:46:29;;;;;;;2.40;2.30;;;;;;;-1.07;61.45;101453.55;103552;1276;95228;-66
2022/02/13 04:48:57;;;;;;;2.30;2.20;;;;;;;-1.07;61.54;101450.92;103445;1276;138663;-66
2022/02/13 04:51:26;;;;;;;2.40;2.30;;;;;;;-1.11;61.44;101452.31;103675;1276;99768;-65
2022/02/13 04:53:54;;;;;;;2.50;2.40;;;;;;;-1.15;61.55;101444.67;103423;1276;139638;-66
2022/02/13 04:56:22;;;;;;;2.20;2.10;;;;;;;-1.15;61.60;101441.72;103483;1276;95352;-65
2022/02/13 04:58:50;;;;;;;2.20;2.10;;;;;;;-1.13;61.67;101446.69;103559;1276;95592;-65
2022/02/13 05:01:18;;;;;;;2.40;2.30;;;;;;;-1.11;61.43;101439.77;103424;1276;138678;-66
2022/02/13 05:03:45;;;;;;;2.40;2.30;;;;;;;-1.14;61.54;101439.14;103572;1276;99471;-65
2022/02/13 05:06:13;;;;;;;2.40;2.30;;;;;;;-1.17;61.55;101436.26;103468;1276;138169;-66
2022/02/13 05:08:41;;;;;;;2.30;2.20;;;;;;;-1.19;61.70;101434.99;103508;1276;95877;-65
2022/02/13 05:11:09;;;;;;;2.20;2.10;;;;;;;-1.14;61.62;101434.61;103563;1276;95641;-65
2022/02/13 05:13:37;;;;;;;2.20;2.10;;;;;;;-1.11;61.62;101434.39;103485;1276;137928;-66
2022/02/13 05:16:05;;;;;;;2.30;2.20;;;;;;;-1.09;61.38;101433.95;103561;1276;99148;-66
2022/02/13 05:18:34;;;;;;;2.50;2.40;;;;;;;-1.09;61.38;101429.05;103579;1276;137998;-66
2022/02/13 05:21:02;;;;;;;2.60;2.50;;;;;;;-1.10;61.40;101426.41;103529;1276;95840;-66
2022/02/13 05:23:30;;;;;;;2.30;2.20;;;;;;;-1.06;61.26;101424.45;103444;1274;138764;-65
2022/02/13 05:25:58;;;;;;;2.30;2.20;;;;;;;-1.03;61.15;101420.23;103592;1276;109488;-66
2022/02/13 05:28:26;;;;;;;2.30;2.20;;;;;;;-1.02;61.05;101422.02;103678;1276;98235;-66
2022/02/13 05:30:54;;;;;;;2.40;2.30;;;;;;;-1.05;61.07;101418.23;103435;1276;138393;-65
2022/02/13 05:33:22;;;;;;;2.90;2.80;;;;;;;-1.09;61.06;101415.80;103522;1276;95422;-66
2022/02/13 05:35:50;;;;;;;2.40;2.30;;;;;;;-1.13;61.30;101419.31;103436;1276;139160;-65
2022/02/13 05:38:17;;;;;;;2.30;2.20;;;;;;;-1.11;61.43;101417.30;103553;1276;109859;-64
2022/02/13 05:40:46;;;;;;;2.30;2.20;;;;;;;-1.10;61.26;101416.49;103575;1276;99590;-65
2022/02/13 05:43:14;;;;;;;2.30;2.20;;;;;;;-1.10;61.17;101415.42;103427;1275;137950;-66
2022/02/13 05:45:41;;;;;;;2.30;2.20;;;;;;;-1.11;61.47;101416.45;103585;1276;95221;-66
2022/02/13 05:48:12;;;;;;;2.40;2.30;;;;;;;-1.12;61.19;101414.66;103494;1276;138649;-65
2022/02/13 05:50:41;;;;;;;2.30;2.20;;;;;;;-1.11;61.25;101413.82;103601;1276;110017;-66
2022/02/13 05:53:09;;;;;;;2.30;2.20;;;;;;;-1.04;61.15;101412.02;103727;1275;99476;-67
2022/02/13 05:55:37;;;;;;;2.30;2.20;;;;;;;-1.03;60.94;101407.15;103514;1276;137883;-67
2022/02/13 05:58:05;;;;;;;2.40;2.30;;;;;;;-1.04;61.04;101409.40;103562;1276;95231;-65
2022/02/13 06:00:32;;;;;;;2.20;2.10;;;;;;;-1.05;61.02;101408.83;103505;1276;138631;-66
2022/02/13 06:03:00;;;;;;;2.50;2.40;;;;;;;-1.09;60.92;101413.02;103615;1276;109972;-65
2022/02/13 06:05:28;;;;;;;2.30;2.20;;;;;;;-1.10;61.08;101409.83;103624;1276;99377;-65
2022/02/13 06:07:56;;;;;;;2.30;2.20;;;;;;;-1.12;61.04;101408.73;103459;1276;138320;-66
2022/02/13 06:10:24;;;;;;;2.40;2.30;;;;;;;-1.10;61.25;101409.69;103633;1276;95724;-66
2022/02/13 06:12:52;;;;;;;2.40;2.30;;;;;;;-1.06;61.16;101404.08;103533;1276;139106;-66
2022/02/13 06:15:20;;;;;;;2.30;2.20;;;;;;;-1.06;61.09;101403.05;103632;1276;109253;-66
2022/02/13 06:17:47;;;;;;;2.40;2.30;;;;;;;-1.09;61.00;101399.27;103499;1276;138998;-65
2022/02/13 06:20:15;;;;;;;2.30;2.20;;;;;;;-1.05;60.99;101402.73;103563;1276;107750;-66
2022/02/13 06:22:43;;;;;;;2.20;2.10;;;;;;;-1.03;60.93;101401.23;103617;1276;95537;-66
2022/02/13 06:25:11;;;;;;;2.30;2.20;;;;;;;-1.02;60.77;101400.41;103539;1276;138542;-66
2022/02/13 06:27:39;;;;;;;2.20;2.10;;;;;;;-0.97;60.87;101397.43;103944;1275;109716;-65
2022/02/13 06:30:07;;;;;;;2.20;2.10;;;;;;;-1.00;60.87;101395.75;103514;1276;138404;-65
2022/02/13 06:32:35;;;;;;;2.50;2.40;;;;;;;-1.00;60.86;101395.41;103636;1276;108810;-66
2022/02/13 06:35:03;;;;;;;2.70;2.60;;;;;;;-0.94;60.83;101389.18;103531;1276;95630;-65
2022/02/13 06:37:31;;;;;;;2.20;2.10;;;;;;;-0.92;60.67;101389.96;103532;1274;138224;-65
2022/02/13 06:40:00;;;;;;;2.20;2.10;;;;;;;-0.88;60.63;101386.63;103589;1274;109677;-66
2022/02/13 06:42:28;;;;;;;2.20;2.10;;;;;;;-0.84;60.48;101389.02;103487;1275;138675;-66
2022/02/13 06:44:55;;;;;;;2.30;2.20;;;;;;;-0.88;60.53;101391.14;103598;1276;108273;-66
2022/02/13 06:47:23;;;;;;;2.30;2.20;;;;;;;-0.89;60.73;101390.75;103587;1276;95327;-65
2022/02/13 06:49:51;;;;;;;2.20;2.10;;;;;;;-0.85;60.45;101388.09;103469;1276;138635;-67
2022/02/13 06:52:19;;;;;;;2.30;2.20;;;;;;;-0.80;60.43;101386.34;103595;1276;110384;-66
2022/02/13 06:54:47;;;;;;;1.90;1.90;;;;;;;-0.77;60.47;101385.59;103445;1276;139110;-66
2022/02/13 06:57:15;;;;;;;2.00;2.00;;;;;;;-0.74;60.52;101382.73;103575;1276;109342;-66
2022/02/13 06:59:43;;;;;;;2.20;2.10;;;;;;;-0.73;60.59;101381.05;103484;1276;138385;-66
2022/02/13 07:02:10;;;;;;;2.10;2.10;;;;;;;-0.71;60.47;101380.40;103586;1276;95712;-66
2022/02/13 07:04:38;;;;;;;2.50;2.40;;;;;;;-0.64;60.30;101375.58;103576;1276;109667;-67
2022/02/13 07:07:08;;;;;;;2.20;2.10;;;;;;;-0.60;60.42;101369.82;103552;1276;138064;-66
2022/02/13 07:09:36;;;;;;;2.20;2.10;;;;;;;-0.53;59.76;101368.98;103629;1276;108867;-68
2022/02/13 07:12:11;;;;;;;2.10;2.10;;;;;;;-0.46;60.09;101363.13;103522;1276;138216;-66
2022/02/13 07:14:39;;;;;;;2.20;2.10;;;;;;;-0.43;59.62;101362.54;103998;1276;96502;-66
2022/02/13 07:17:08;;;;;;;2.30;2.20;;;;;;;-0.39;59.51;101360.75;103592;1276;109893;-65
2022/02/13 07:19:37;;;;;;;2.00;2.00;;;;;;;-0.34;59.57;101358.66;103458;1276;138847;-65
2022/02/13 07:22:07;;;;;;;2.00;2.00;;;;;;;-0.28;59.44;101356.39;103485;1274;109422;-66
2022/02/13 07:24:37;;;;;;;1.90;1.90;;;;;;;-0.19;59.54;101354.60;103473;1276;139088;-66
2022/02/13 07:27:05;;;;;;;2.00;2.00;;;;;;;-0.12;59.24;101353.26;103574;1276;95238;-66
2022/02/13 07:29:34;;;;;;;2.00;2.00;;;;;;;-0.10;58.71;101350.55;103559;1276;109827;-66
2022/02/13 07:32:03;;;;;;;2.10;2.10;;;;;;;-0.06;58.87;101345.77;103499;1276;138152;-66
2022/02/13 07:34:31;;;;;;;2.40;2.30;;;;;;;-0.03;58.84;101347.11;103636;1276;109098;-67
2022/02/13 07:37:02;;;;;;;2.20;2.10;;;;;;;0.02;58.56;101343.08;103813;1276;138172;-68
2022/02/13 07:39:31;;;;;;;2.00;2.00;;;;;;;0.07;58.85;101339.92;103575;1276;95641;-66
2022/02/13 07:41:59;;;;;;;1.90;1.90;;;;;;;0.25;58.67;101337.84;103838;1276;138301;-67
2022/02/13 07:44:27;;;;;;;1.80;1.80;;;;;;;0.44;57.72;101333.55;103703;1276;99616;-66
2022/02/13 07:46:56;;;;;;;1.90;1.90;;;;;;;0.76;57.43;101333.27;103569;1276;106455;-66
2022/02/13 07:49:24;;;;;;;1.80;1.80;;;;;;;0.88;56.43;101334.10;103466;1276;138384;-66
2022/02/13 07:51:51;;;;;;;1.80;1.80;;;;;;;0.91;56.57;101328.25;103622;1276;95198;-67
2022/02/13 07:54:19;;;;;;;1.80;1.80;;;;;;;0.98;56.61;101319.53;103472;1276;138047;-66
2022/02/13 07:56:47;;;;;;;1.70;1.70;;;;;;;1.14;55.94;101316.82;103517;1276;99533;-66
2022/02/13 07:59:15;;;;;;;1.80;1.80;;;;;;;1.29;55.06;101313.36;103736;1276;108810;-66
2022/02/13 08:01:43;;;;;;;1.70;1.70;;;;;;;1.27;55.06;101310.68;103437;1276;138100;-65
2022/02/13 08:04:11;;;;;;;1.70;1.70;;;;;;;1.29;55.12;101310.05;103526;1276;95353;-66
2022/02/13 08:06:39;;;;;;;1.70;1.70;;;;;;;1.41;55.28;101311.40;103431;1276;138009;-66
2022/02/13 08:09:07;;;;;;;1.70;1.70;;;;;;;1.43;54.44;101315.30;103695;1276;99243;-63
2022/02/13 08:11:35;;;;;;;1.90;1.90;;;;;;;1.44;55.20;101317.60;103583;1276;108571;-67
2022/02/13 08:14:03;;;;;;;1.80;1.80;;;;;;;1.42;55.11;101311.44;103428;1276;137746;-66
2022/02/13 08:16:31;;;;;;;1.90;1.90;;;;;;;1.36;54.77;101308.65;103605;1276;95285;-66
2022/02/13 08:18:59;;;;;;;1.70;1.70;;;;;;;1.33;55.39;101303.69;103476;1276;138349;-66
2022/02/13 08:21:27;;;;;;;1.70;1.70;;;;;;;1.41;55.15;101299.35;103585;1276;100057;-65
2022/02/13 08:23:54;;;;;;;1.60;1.60;;;;;;;1.42;55.05;101298.14;103427;1276;138621;-65
2022/02/13 08:26:22;;;;;;;1.90;1.90;;;;;;;1.46;55.17;101284.95;103558;1276;95668;-65
2022/02/13 08:28:51;;;;;;;1.60;1.60;;;;;;;1.50;55.16;101285.05;103550;1276;95138;-67
2022/02/13 08:31:19;;;;;;;1.70;1.70;;;;;;;1.58;54.73;101276.83;103580;1276;137805;-66
2022/02/13 08:33:48;;;;;;;1.90;1.90;;;;;;;1.71;55.13;101270.13;103526;1276;99462;-66
2022/02/13 08:36:15;;;;;;;1.70;1.70;;;;;;;1.80;54.85;101270.19;103421;1276;138531;-66
2022/02/13 08:38:43;;;;;;;1.60;1.60;;;;;;;1.90;54.95;101269.70;103502;1276;95609;-65
2022/02/13 08:41:11;;;;;;;1.60;1.60;;;;;;;2.03;54.86;101265.80;103605;1274;95365;-66
2022/02/13 08:43:40;;;;;;;1.50;1.50;;;;;;;2.13;53.75;101272.52;103451;1276;137790;-65
2022/02/13 08:46:08;;;;;;;1.50;1.50;;;;;;;2.16;53.98;101269.94;103664;1276;99771;-65
2022/02/13 08:48:38;;;;;;;1.70;1.70;;;;;;;2.25;53.76;101271.20;103565;1276;137638;-66
2022/02/13 08:51:06;;;;;;;1.50;1.50;;;;;;;2.36;53.43;101270.39;103588;1276;95227;-65
2022/02/13 08:53:34;;;;;;;1.60;1.60;;;;;;;2.45;53.49;101267.60;103561;1276;95213;-66
2022/02/13 08:56:02;;;;;;;1.50;1.50;;;;;;;2.61;53.48;101267.22;103481;1276;138032;-65
2022/02/13 08:58:30;;;;;;;1.50;1.50;;;;;;;2.71;52.40;101264.27;103639;1276;99721;-65
2022/02/13 09:00:59;;;;;;;1.40;1.40;;;;;;;2.75;52.34;101259.41;103522;1276;137701;-66
2022/02/13 09:03:30;;;;;;;1.60;1.60;;;;;;;2.87;52.30;101256.65;103659;1276;97704;-66
2022/02/13 09:05:58;;;;;;;1.30;1.30;;;;;;;3.03;52.07;101252.39;103374;1276;138382;-65
2022/02/13 09:08:26;;;;;;;1.30;1.30;;;;;;;3.17;51.60;101249.15;103554;1276;109741;-66
2022/02/13 09:10:54;;;;;;;1.30;1.30;;;;;;;3.33;51.13;101243.82;103659;1276;99424;-64
2022/02/13 09:13:22;;;;;;;1.30;1.30;;;;;;;3.42;50.71;101237.99;103561;1276;137792;-67
2022/02/13 09:15:50;;;;;;;1.30;1.30;;;;;;;3.53;49.89;101239.05;103615;1277;95241;-65
2022/02/13 09:18:18;;;;;;;1.30;1.30;;;;;;;3.71;49.79;101237.55;103500;1276;137816;-66
2022/02/13 09:20:46;;;;;;;1.20;1.20;;;;;;;3.82;49.38;101232.29;103621;1276;108716;-64
2022/02/13 09:23:17;;;;;;;1.20;1.20;;;;;;;3.89;48.99;101233.27;103589;1276;99382;-65
2022/02/13 09:25:45;;;;;;;1.20;1.20;;;;;;;3.99;48.89;101241.33;103614;1276;138288;-65
2022/02/13 09:28:14;;;;;;;1.30;1.30;;;;;;;4.16;49.09;101237.52;103603;1275;95663;-65
2022/02/13 09:30:46;;;;;;;1.30;1.30;;;;;;;4.81;48.06;101234.95;103556;1276;137788;-65
2022/02/13 09:33:20;;;;;;;1.60;1.60;;;;;;;5.79;45.67;101220.67;103572;1276;107623;-67
2022/02/13 09:35:48;;;;;;;1.30;1.30;;;;;;;7.51;41.86;101212.15;103500;1276;141433;-65
2022/02/13 09:38:16;;;;;;;1.00;1.00;;;;;;;9.58;37.91;101205.54;103499;1276;109044;-65
2022/02/13 09:40:47;;;;;;;0.80;0.80;;;;;;;11.31;35.22;101187.55;103517;1276;95781;-65
2022/02/13 09:43:16;;;;;;;0.50;0.50;;;;;;;12.60;33.41;101181.05;103570;1276;138325;-65
2022/02/13 09:45:46;;;;;;;0.50;0.50;;;;;;;12.78;31.75;101173.88;103732;1275;109816;-65
2022/02/13 09:48:16;;;;;;;0.60;0.60;;;;;;;12.18;32.25;101178.20;103507;1276;138667;-66
2022/02/13 09:50:45;;;;;;;0.40;0.30;;;;;;;13.28;31.91;101165.00;103734;1276;109861;-65
2022/02/13 09:53:17;;;;;;;0.40;0.30;;;;;;;13.56;30.20;101153.80;103521;1276;95307;-66
2022/02/13 09:55:45;;;;;;;0.40;0.30;;;;;;;13.25;30.48;101151.73;103426;1276;138850;-65
2022/02/13 09:58:13;;;;;;;0.40;0.30;;;;;;;12.69;31.07;101155.17;103634;1276;110190;-64
2022/02/13 10:01:06;;;;;;;0.40;0.40;;;;;;;12.15;31.02;101151.00;103568;1276;138847;-63
2022/02/13 10:03:38;;;;;;;0.40;0.30;;;;;;;12.27;31.38;101146.48;103530;1276;108763;-65
2022/02/13 10:06:12;;;;;;;0.40;0.30;;;;;;;11.82;31.74;101147.90;103169;1276;138628;-64
2022/02/13 10:08:53;;;;;;;0.40;0.30;;;;;;;11.19;32.45;101132.84;103253;1276;96474;-66
2022/02/13 10:11:35;;;;;;;0.40;0.30;;;;;;;10.60;32.89;101127.39;103408;1276;108841;-66
2022/02/13 10:14:04;;;;;;;0.50;0.40;;;;;;;9.95;34.81;101125.55;103409;1276;138281;-65
2022/02/13 10:16:42;;;;;;;0.50;0.40;;;;;;;9.59;35.86;101125.09;103520;1276;109587;-64
2022/02/13 10:19:19;;;;;;;0.50;0.50;;;;;;;9.31;36.11;101127.66;103522;1276;138607;-65
2022/02/13 10:21:51;;;;;;;0.50;0.50;;;;;;;8.90;37.12;101116.85;103878;1276;95139;-67
2022/02/13 10:24:35;;;;;;;0.50;0.50;;;;;;;8.41;37.59;101120.17;103337;1276;138536;-66
2022/02/13 10:27:04;;;;;;;0.60;0.60;;;;;;;7.86;38.52;101117.95;103510;1276;99518;-66
2022/02/13 10:29:34;;;;;;;0.60;0.60;;;;;;;7.60;39.22;101110.42;103511;1276;108846;-67
2022/02/13 10:32:20;;;;;;;0.60;0.60;;;;;;;7.48;39.25;101114.86;103543;1276;137479;-67
2022/02/13 10:34:59;;;;;;;0.70;0.70;;;;;;;7.35;39.25;101107.80;103776;1276;97208;-67
2022/02/13 10:37:37;;;;;;;0.60;0.60;;;;;;;7.92;37.71;101109.41;103306;1276;137819;-65
2022/02/13 10:40:08;;;;;;;0.60;0.60;;;;;;;8.61;37.06;101098.29;103456;1276;99266;-67
2022/02/13 10:42:35;;;;;;;0.60;0.60;;;;;;;8.64;36.70;101095.61;103517;1276;137732;-67
2022/02/13 10:45:15;;;;;;;0.50;0.50;;;;;;;8.75;36.06;101085.98;103549;1276;95762;-66
2022/02/13 10:47:45;;;;;;;0.50;0.50;;;;;;;8.58;36.20;101080.43;103429;1276;137977;-64
2022/02/13 10:50:15;;;;;;;0.50;0.50;;;;;;;8.13;36.97;101080.51;103376;1276;109308;-65
2022/02/13 10:52:48;;;;;;;0.60;0.60;;;;;;;7.82;37.94;101081.18;103972;1274;100016;-67
2022/02/13 10:55:16;;;;;;;0.70;0.70;;;;;;;7.48;38.40;101078.81;103257;1276;137849;-66
2022/02/13 10:57:44;;;;;;;0.60;0.60;;;;;;;7.32;39.36;101078.31;103367;1276;95513;-67
2022/02/13 11:00:15;;;;;;;0.60;0.60;;;;;;;7.15;39.41;101072.34;103395;1276;137989;-66
2022/02/13 11:02:48;;;;;;;0.70;0.70;;;;;;;7.07;39.82;101075.36;103438;1276;109703;-66
2022/02/13 11:05:21;;;;;;;0.80;0.80;;;;;;;6.85;39.73;101075.19;107373;1276;99483;-66
2022/02/13 11:07:50;;;;;;;0.80;0.80;;;;;;;6.74;40.30;101077.30;104829;1276;138133;-66
2022/02/13 11:10:27;;;;;;;0.80;0.80;;;;;;;6.68;40.69;101072.02;104364;1276;97059;-66
2022/02/13 11:12:55;;;;;;;0.80;0.80;;;;;;;6.71;41.28;101072.19;103453;1276;137755;-66
2022/02/13 11:15:28;;;;;;;0.70;0.70;;;;;;;6.66;41.40;101063.02;103436;1276;109798;-66
2022/02/13 11:18:02;;;;;;;0.70;0.70;;;;;;;6.71;41.41;101058.77;103524;1276;138549;-66
2022/02/13 11:20:31;;;;;;;1.00;1.00;;;;;;;6.69;41.43;101059.30;104512;1276;108986;-66
2022/02/13 11:23:27;;;;;;;0.80;0.80;;;;;;;6.67;41.46;101047.50;103187;1277;95237;-67